createdAt,value
2022-09-07T00:00:50.426Z,98597.47
2022-09-07T00:02:53.177Z,98599.41
2022-09-07T00:04:55.824Z,98601.34
2022-09-07T00:06:58.503Z,98602.47
2022-09-07T00:09:02.725Z,98603.59
2022-09-07T00:11:08.898Z,98589.63
2022-09-07T00:13:11.556Z,98592.06
2022-09-07T00:15:14.415Z,98590.13
2022-09-07T00:17:17.094Z,98589.16
2022-09-07T00:19:19.768Z,98592.84
2022-09-07T00:21:22.508Z,98598.63
2022-09-07T00:23:25.361Z,98587.56
2022-09-07T00:25:30.825Z,98590.13
2022-09-07T00:27:34.625Z,98585.94
2022-09-07T00:29:37.400Z,98597.34
2022-09-07T00:31:40.133Z,98597.03
2022-09-07T00:33:44.527Z,98602.50
2022-09-07T00:35:47.679Z,98602.50
2022-09-07T00:37:50.394Z,98594.78
2022-09-07T00:39:53.170Z,98594.44
2022-09-07T00:41:55.923Z,98593.97
2022-09-07T00:44:19.648Z,98590.13
2022-09-07T00:46:30.312Z,98588.19
2022-09-07T00:49:13.347Z,98585.63
2022-09-07T00:51:21.887Z,98581.25
2022-09-07T00:53:30.958Z,98583.56
2022-09-07T00:55:36.448Z,98586.72
2022-09-07T00:57:43.584Z,98588.34
2022-09-07T00:59:50.300Z,98586.09
2022-09-07T01:01:53.710Z,98586.09
2022-09-07T01:03:59.749Z,98586.25
2022-09-07T01:06:25.382Z,98592.19
2022-09-07T01:08:29.710Z,98584.78
2022-09-07T01:10:33.804Z,98583.19
2022-09-07T01:12:36.443Z,98578.38
2022-09-07T01:14:47.204Z,98583.50
2022-09-07T01:17:25.329Z,98586.25
2022-09-07T01:19:52.486Z,98584.31
2022-09-07T01:22:13.089Z,98577.72
2022-09-07T01:24:43.259Z,98584.97
2022-09-07T01:26:51.977Z,98584.16
2022-09-07T01:29:19.927Z,98583.69
2022-09-07T01:31:43.082Z,98590.63
2022-09-07T01:34:04.523Z,98597.53
2022-09-07T01:36:12.806Z,98590.44
2022-09-07T01:38:22.068Z,98594.19
2022-09-07T01:40:40.275Z,98591.78
2022-09-07T01:42:58.016Z,98595.63
2022-09-07T01:45:02.837Z,98598.34
2022-09-07T01:47:17.849Z,98594.34
2022-09-07T01:49:34.031Z,98598.22
2022-09-07T01:51:42.013Z,98599.81
2022-09-07T01:53:54.533Z,98600.28
2022-09-07T01:56:03.734Z,98596.94
2022-09-07T01:58:35.757Z,98606.72
2022-09-07T02:00:43.329Z,98601.56
2022-09-07T02:03:00.569Z,98587.59
2022-09-07T02:05:28.575Z,98599.31
2022-09-07T02:07:40.869Z,98604.59
2022-09-07T02:10:23.635Z,98604.94
2022-09-07T02:12:44.148Z,98604.78
2022-09-07T02:14:52.909Z,98604.78
2022-09-07T02:17:01.661Z,98607.19
2022-09-07T02:19:15.355Z,98595.91
2022-09-07T02:21:25.591Z,98611.84
2022-09-07T02:23:33.288Z,98600.88
2022-09-07T02:26:03.225Z,98611.19
2022-09-07T02:28:10.968Z,98617.78
2022-09-07T02:30:14.026Z,98609.75
2022-09-07T02:32:16.720Z,98605.88
2022-09-07T02:34:19.678Z,98618.56
2022-09-07T02:36:26.618Z,98604.28
2022-09-07T02:38:29.580Z,98607.94
2022-09-07T02:40:32.793Z,98617.09
2022-09-07T02:42:36.966Z,98611.63
2022-09-07T02:44:42.678Z,98608.41
2022-09-07T02:46:54.310Z,98618.84
2022-09-07T02:49:13.595Z,98618.06
2022-09-07T02:51:24.414Z,98612.59
2022-09-07T02:53:38.609Z,98608.88
2022-09-07T02:55:58.335Z,98614.63
2022-09-07T02:58:39.685Z,98609.84
2022-09-07T03:00:59.902Z,98616.09
2022-09-07T03:03:13.314Z,98616.59
2022-09-07T03:05:27.832Z,98611.41
2022-09-07T03:07:38.976Z,98615.88
2022-09-07T03:09:47.599Z,98616.81
2022-09-07T03:11:51.053Z,98612.97
2022-09-07T03:14:11.009Z,98608.75
2022-09-07T03:16:16.565Z,98621.66
2022-09-07T03:18:19.668Z,98611.69
2022-09-07T03:20:23.366Z,98618.88
2022-09-07T03:22:26.216Z,98617.09
2022-09-07T03:24:28.994Z,98615.31
2022-09-07T03:26:31.611Z,98620.91
2022-09-07T03:28:34.265Z,98616.75
2022-09-07T03:30:37.079Z,98624.28
2022-09-07T03:32:40.113Z,98623.63
2022-09-07T03:34:42.894Z,98624.88
2022-09-07T03:36:45.545Z,98619.28
2022-09-07T03:38:48.298Z,98628.91
2022-09-07T03:41:06.198Z,98630.16
2022-09-07T03:43:08.869Z,98626.63
2022-09-07T03:45:11.676Z,98629.84
2022-09-07T03:47:14.572Z,98636.28
2022-09-07T03:49:17.612Z,98626.78
2022-09-07T03:51:20.390Z,98642.06
2022-09-07T03:53:23.212Z,98635.97
2022-09-07T03:55:25.875Z,98638.34
2022-09-07T03:57:28.504Z,98644.16
2022-09-07T03:59:31.268Z,98642.50
2022-09-07T04:01:33.941Z,98653.47
2022-09-07T04:03:37.661Z,98652.13
2022-09-07T04:05:40.333Z,98649.06
2022-09-07T04:07:42.953Z,98653.88
2022-09-07T04:09:45.554Z,98655.59
2022-09-07T04:11:48.358Z,98644.66
2022-09-07T04:13:51.027Z,98656.72
2022-09-07T04:15:54.270Z,98659.09
2022-09-07T04:17:57.063Z,98660.03
2022-09-07T04:19:59.877Z,98657.78
2022-09-07T04:22:02.538Z,98659.38
2022-09-07T04:24:05.742Z,98666.06
2022-09-07T04:26:15.110Z,98663.00
2022-09-07T04:28:19.631Z,98669.75
2022-09-07T04:30:22.302Z,98670.53
2022-09-07T04:32:24.964Z,98666.78
2022-09-07T04:34:27.755Z,98664.06
2022-09-07T04:36:30.436Z,98668.06
2022-09-07T04:38:33.134Z,98662.72
2022-09-07T04:40:36.262Z,98661.38
2022-09-07T04:42:38.844Z,98665.38
2022-09-07T04:44:41.590Z,98667.78
2022-09-07T04:46:44.200Z,98664.59
2022-09-07T04:48:50.781Z,98667.78
2022-09-07T04:50:53.523Z,98676.28
2022-09-07T04:52:56.101Z,98678.47
2022-09-07T04:54:58.744Z,98671.84
2022-09-07T04:57:01.441Z,98672.00
2022-09-07T04:59:04.353Z,98668.81
2022-09-07T05:01:07.371Z,98677.78
2022-09-07T05:03:10.197Z,98662.91
2022-09-07T05:05:12.893Z,98679.75
2022-09-07T05:07:15.559Z,98686.72
2022-09-07T05:09:18.228Z,98676.66
2022-09-07T05:11:28.467Z,98678.88
2022-09-07T05:13:32.583Z,98682.97
2022-09-07T05:15:35.286Z,98685.25
2022-09-07T05:17:37.862Z,98688.84
2022-09-07T05:19:40.517Z,98681.16
2022-09-07T05:21:43.206Z,98676.28
2022-09-07T05:23:49.297Z,98681.53
2022-09-07T05:25:51.922Z,98681.22
2022-09-07T05:27:55.366Z,98674.94
2022-09-07T05:30:01.242Z,98680.19
2022-09-07T05:32:04.396Z,98683.63
2022-09-07T05:36:30.304Z,98681.34
2022-09-07T05:38:36.837Z,98688.47
2022-09-07T05:40:40.829Z,98690.97
2022-09-07T05:42:43.757Z,98694.53
2022-09-07T05:44:46.595Z,98700.25
2022-09-07T05:46:49.421Z,98696.94
2022-09-07T05:48:52.251Z,98699.91
2022-09-07T05:50:54.976Z,98693.84
2022-09-07T05:52:59.451Z,98701.50
2022-09-07T05:55:26.221Z,98706.19
2022-09-07T05:57:25.387Z,98703.34
2022-09-07T05:59:27.957Z,98707.19
2022-09-07T06:01:39.821Z,98696.69
2022-09-07T06:03:43.263Z,98697.50
2022-09-07T06:05:46.583Z,98694.06
2022-09-07T06:07:49.285Z,98698.31
2022-09-07T06:12:14.568Z,98699.91
2022-09-07T06:14:17.234Z,98699.69
2022-09-07T06:16:20.697Z,98704.94
2022-09-07T06:18:23.438Z,98704.94
2022-09-07T06:20:26.263Z,98707.69
2022-09-07T06:22:31.153Z,98703.13
2022-09-07T06:24:34.725Z,98703.66
2022-09-07T06:26:38.130Z,98708.94
2022-09-07T06:28:48.830Z,98704.59
2022-09-07T06:30:52.406Z,98702.66
2022-09-07T06:32:55.158Z,98704.69
2022-09-07T06:34:57.875Z,98704.91
2022-09-07T06:37:00.507Z,98702.50
2022-09-07T06:39:03.291Z,98701.44
2022-09-07T06:43:32.156Z,98697.88
2022-09-07T06:45:34.869Z,98705.53
2022-09-07T06:47:37.584Z,98706.31
2022-09-07T06:49:40.332Z,98703.03
2022-09-07T06:51:43.080Z,98701.66
2022-09-07T06:53:48.303Z,98711.31
2022-09-07T06:55:51.485Z,98704.56
2022-09-07T06:57:54.891Z,98706.38
2022-09-07T06:59:57.522Z,98703.28
2022-09-07T07:02:00.230Z,98708.97
2022-09-07T07:04:05.185Z,98711.94
2022-09-07T07:06:11.355Z,98721.91
2022-09-07T07:08:17.744Z,98714.44
2022-09-07T07:10:25.022Z,98708.41
2022-09-07T07:14:38.674Z,98716.00
2022-09-07T07:16:47.519Z,98708.19
2022-09-07T07:19:11.372Z,98716.06
2022-09-07T07:23:39.045Z,98718.09
2022-09-07T07:25:43.951Z,98726.56
2022-09-07T07:27:49.138Z,98720.59
2022-09-07T07:29:55.069Z,98720.53
2022-09-07T07:31:59.657Z,98722.59
2022-09-07T07:34:13.995Z,98716.63
2022-09-07T07:36:21.532Z,98721.19
2022-09-07T07:43:19.468Z,98714.31
2022-09-07T07:47:50.120Z,98715.81
2022-09-07T07:50:30.701Z,98725.84
2022-09-07T07:54:39.329Z,98715.03
2022-09-07T07:56:42.147Z,98721.69
2022-09-07T07:58:47.207Z,98710.22
2022-09-07T08:00:57.474Z,98709.59
2022-09-07T08:03:01.879Z,98710.13
2022-09-07T08:05:05.244Z,98713.03
2022-09-07T08:07:11.340Z,98718.03
2022-09-07T08:09:14.268Z,98715.09
2022-09-07T08:11:20.446Z,98710.66
2022-09-07T08:13:22.939Z,98709.66
2022-09-07T08:15:25.661Z,98705.81
2022-09-07T08:17:28.283Z,98704.59
2022-09-07T08:19:30.826Z,98723.63
2022-09-07T08:21:33.457Z,98721.31
2022-09-07T08:23:36.113Z,98704.16
2022-09-07T08:25:38.793Z,98706.34
2022-09-07T08:27:41.496Z,98716.66
2022-09-07T08:29:44.113Z,98707.53
2022-09-07T08:31:46.901Z,98709.66
2022-09-07T08:33:49.653Z,98706.88
2022-09-07T08:36:01.645Z,98705.31
2022-09-07T08:38:04.995Z,98712.50
2022-09-07T08:40:15.639Z,98711.97
2022-09-07T08:42:23.886Z,98709.03
2022-09-07T08:44:28.921Z,98703.91
2022-09-07T08:46:54.569Z,98705.84
2022-09-07T08:49:01.049Z,98704.22
2022-09-07T08:51:24.405Z,98711.72
2022-09-07T08:53:29.718Z,98712.09
2022-09-07T08:55:39.393Z,98709.91
2022-09-07T08:57:48.999Z,98714.81
2022-09-07T09:00:10.712Z,98712.03
2022-09-07T09:02:38.354Z,98710.63
2022-09-07T09:07:20.751Z,98709.38
2022-09-07T09:09:23.300Z,98714.47
2022-09-07T09:11:45.677Z,98710.63
2022-09-07T09:14:18.494Z,98707.66
2022-09-07T09:16:42.899Z,98711.63
2022-09-07T09:19:17.855Z,98711.63
2022-09-07T09:21:20.756Z,98713.28
2022-09-07T09:23:28.857Z,98704.91
2022-09-07T09:25:37.383Z,98712.19
2022-09-07T09:27:40.247Z,98709.47
2022-09-07T09:29:43.161Z,98714.28
2022-09-07T09:31:45.812Z,98710.06
2022-09-07T09:34:08.817Z,98706.63
2022-09-07T09:36:31.418Z,98705.56
2022-09-07T09:38:36.612Z,98707.59
2022-09-07T09:40:39.422Z,98722.00
2022-09-07T09:42:42.184Z,98704.25
2022-09-07T09:44:45.684Z,98713.22
2022-09-07T09:49:29.535Z,98714.16
2022-09-07T09:54:06.466Z,98728.06
2022-09-07T09:56:09.656Z,98710.38
2022-09-07T10:01:28.417Z,98711.56
2022-09-07T10:05:57.010Z,98715.56
2022-09-07T10:07:59.888Z,98710.50
2022-09-07T10:10:03.819Z,98712.41
2022-09-07T10:12:24.603Z,98721.16
2022-09-07T10:14:30.717Z,98717.75
2022-09-07T10:16:40.674Z,98712.84
2022-09-07T10:19:05.814Z,98705.09
2022-09-07T10:21:27.001Z,98714.47
2022-09-07T10:23:29.885Z,98715.06
2022-09-07T10:25:45.975Z,98717.91
2022-09-07T10:28:15.742Z,98698.63
2022-09-07T10:30:20.203Z,98704.41
2022-09-07T10:32:28.605Z,98709.06
2022-09-07T10:34:40.790Z,98707.13
2022-09-07T10:37:04.221Z,98697.06
2022-09-07T10:39:13.541Z,98721.19
2022-09-07T10:41:21.671Z,98712.03
2022-09-07T10:43:43.744Z,98707.56
2022-09-07T10:46:08.065Z,98721.13
2022-09-07T10:48:31.062Z,98712.81
2022-09-07T10:50:51.602Z,98718.41
2022-09-07T10:53:23.443Z,98721.31
2022-09-07T10:55:40.436Z,98723.09
2022-09-07T10:57:51.960Z,98722.41
2022-09-07T11:00:11.360Z,98721.50
2022-09-07T11:02:30.614Z,98722.72
2022-09-07T11:05:03.985Z,98721.53
2022-09-07T11:07:25.604Z,98726.63
2022-09-07T11:09:52.581Z,98726.63
2022-09-07T11:12:03.456Z,98719.41
2022-09-07T11:14:13.980Z,98718.00
2022-09-07T11:18:47.186Z,98725.06
2022-09-07T11:20:56.779Z,98728.03
2022-09-07T11:23:18.796Z,98723.09
2022-09-07T11:25:29.448Z,98723.66
2022-09-07T11:28:01.869Z,98737.09
2022-09-07T11:30:15.921Z,98723.16
2022-09-07T11:32:25.424Z,98720.34
2022-09-07T11:35:03.062Z,98717.44
2022-09-07T11:37:15.512Z,98724.56
2022-09-07T11:39:26.567Z,98714.72
2022-09-07T11:41:34.159Z,98718.56
2022-09-07T11:43:45.486Z,98726.72
2022-09-07T11:46:05.171Z,98725.59
2022-09-07T11:48:31.061Z,98736.06
2022-09-07T11:50:42.078Z,98727.19
2022-09-07T11:53:15.206Z,98731.13
2022-09-07T11:55:27.605Z,98728.47
2022-09-07T11:57:42.133Z,98728.56
2022-09-07T11:59:56.621Z,98735.97
2022-09-07T12:02:18.797Z,98732.31
2022-09-07T12:04:56.482Z,98728.78
2022-09-07T12:07:17.999Z,98737.84
2022-09-07T12:09:40.786Z,98734.72
2022-09-07T12:12:07.370Z,98742.00
2022-09-07T12:14:25.129Z,98731.84
2022-09-07T12:17:07.431Z,98735.47
2022-09-07T12:19:18.720Z,98741.56
2022-09-07T12:21:45.472Z,98735.97
2022-09-07T12:23:48.714Z,98735.59
2022-09-07T12:25:52.247Z,98740.81
2022-09-07T12:27:55.578Z,98733.88
2022-09-07T12:29:58.150Z,98739.91
2022-09-07T12:34:35.234Z,98741.56
2022-09-07T12:36:37.974Z,98760.28
2022-09-07T12:39:20.840Z,98749.94
2022-09-07T12:41:39.805Z,98759.94
2022-09-07T12:43:52.058Z,98761.19
2022-09-07T12:45:56.837Z,98755.94
2022-09-07T12:48:08.034Z,98760.47
2022-09-07T12:50:28.809Z,98751.50
2022-09-07T12:52:43.444Z,98758.75
2022-09-07T12:55:16.374Z,98763.22
2022-09-07T12:57:41.380Z,98766.91
2022-09-07T12:59:55.652Z,98769.94
2022-09-07T13:02:22.192Z,98763.34
2022-09-07T13:04:56.606Z,98754.28
2022-09-07T13:07:27.807Z,98762.09
2022-09-07T13:09:36.069Z,98757.94
2022-09-07T13:11:40.664Z,98755.44
2022-09-07T13:14:08.697Z,98752.69
2022-09-07T13:16:12.329Z,98760.50
2022-09-07T13:18:29.891Z,98764.88
2022-09-07T13:20:37.670Z,98762.47
2022-09-07T13:22:42.716Z,98754.56
2022-09-07T13:24:52.848Z,98756.09
2022-09-07T13:26:55.499Z,98764.34
2022-09-07T13:29:02.921Z,98761.94
2022-09-07T13:31:31.358Z,98757.22
2022-09-07T13:33:52.459Z,98757.66
2022-09-07T13:35:59.253Z,98760.97
2022-09-07T13:38:03.871Z,98753.53
2022-09-07T13:40:12.097Z,98752.00
2022-09-07T13:42:21.686Z,98757.06
2022-09-07T13:44:30.037Z,98757.50
2022-09-07T13:46:50.618Z,98764.63
2022-09-07T13:49:02.350Z,98752.34
2022-09-07T13:51:48.550Z,98751.19
2022-09-07T13:54:18.253Z,98759.03
2022-09-07T13:56:41.081Z,98754.66
2022-09-07T13:58:48.707Z,98752.88
2022-09-07T14:01:16.330Z,98761.22
2022-09-07T14:03:19.214Z,98760.31
2022-09-07T14:05:22.621Z,98753.09
2022-09-07T14:07:28.208Z,98752.13
2022-09-07T14:09:31.119Z,98756.28
2022-09-07T14:11:36.661Z,98761.69
2022-09-07T14:13:39.198Z,98756.44
2022-09-07T14:15:47.277Z,98759.44
2022-09-07T14:18:02.570Z,98761.63
2022-09-07T14:20:07.047Z,98763.50
2022-09-07T14:22:17.079Z,98763.03
2022-09-07T14:24:28.353Z,98769.69
2022-09-07T14:26:31.103Z,98763.28
2022-09-07T14:28:38.537Z,98764.72
2022-09-07T14:30:42.168Z,98772.78
2022-09-07T14:32:46.897Z,98770.19
2022-09-07T14:34:50.499Z,98770.06
2022-09-07T14:36:54.646Z,98781.31
2022-09-07T14:39:05.406Z,98773.41
2022-09-07T14:41:12.253Z,98774.69
2022-09-07T14:43:54.114Z,98770.44
2022-09-07T14:46:22.246Z,98774.13
2022-09-07T14:48:32.438Z,98770.94
2022-09-07T14:50:39.179Z,98767.13
2022-09-07T14:53:33.950Z,98772.75
2022-09-07T14:55:20.190Z,98769.44
2022-09-07T14:57:30.621Z,98772.41
2022-09-07T14:59:54.041Z,98771.84
2022-09-07T15:02:24.144Z,98764.38
2022-09-07T15:04:28.607Z,98773.66
2022-09-07T15:07:02.318Z,98769.66
2022-09-07T15:09:07.295Z,98767.94
2022-09-07T15:11:33.388Z,98767.69
2022-09-07T15:13:39.138Z,98773.97
2022-09-07T15:15:41.931Z,98773.41
2022-09-07T15:17:45.245Z,98779.94
2022-09-07T15:19:50.437Z,98782.91
2022-09-07T15:21:53.132Z,98777.97
2022-09-07T15:23:58.779Z,98790.44
2022-09-07T15:26:02.333Z,98784.47
2022-09-07T15:28:05.846Z,98789.50
2022-09-07T15:30:11.589Z,98789.34
2022-09-07T15:32:16.700Z,98786.16
2022-09-07T15:34:20.861Z,98786.16
2022-09-07T15:36:23.542Z,98793.94
2022-09-07T15:41:21.735Z,98796.47
2022-09-07T15:43:23.044Z,98792.78
2022-09-07T15:45:25.832Z,98800.22
2022-09-07T15:47:48.168Z,98796.69
2022-09-07T15:49:51.780Z,98798.97
2022-09-07T15:52:05.089Z,98803.31
2022-09-07T15:54:12.350Z,98797.22
2022-09-07T15:56:17.257Z,98801.94
2022-09-07T15:58:22.629Z,98801.25
2022-09-07T16:00:25.307Z,98800.56
2022-09-07T16:04:51.651Z,98817.41
2022-09-07T16:06:54.858Z,98796.44
2022-09-07T16:08:57.544Z,98805.47
2022-09-07T16:11:12.461Z,98804.31
2022-09-07T16:13:16.882Z,98802.72
2022-09-07T16:15:19.693Z,98808.06
2022-09-07T16:17:26.925Z,98803.56
2022-09-07T16:19:30.458Z,98811.69
2022-09-07T16:21:33.197Z,98805.72
2022-09-07T16:23:36.465Z,98803.31
2022-09-07T16:25:39.380Z,98801.09
2022-09-07T16:27:41.974Z,98802.47
2022-09-07T16:29:44.866Z,98809.28
2022-09-07T16:34:10.127Z,98811.28
2022-09-07T16:36:15.975Z,98804.06
2022-09-07T16:40:41.990Z,98798.66
2022-09-07T16:42:47.016Z,98800.78
2022-09-07T16:44:52.170Z,98805.00
2022-09-07T16:46:55.464Z,98793.53
2022-09-07T16:48:58.350Z,98797.44
2022-09-07T16:51:02.817Z,98797.44
2022-09-07T16:53:05.527Z,98803.59
2022-09-07T16:55:08.461Z,98800.22
2022-09-07T16:57:11.112Z,98808.19
2022-09-07T16:59:19.817Z,98799.00
2022-09-07T17:01:25.619Z,98803.88
2022-09-07T17:03:28.469Z,98797.81
2022-09-07T17:05:31.437Z,98793.91
2022-09-07T17:07:34.737Z,98798.59
2022-09-07T17:09:37.582Z,98796.53
2022-09-07T17:11:40.912Z,98794.91
2022-09-07T17:13:44.073Z,98789.41
2022-09-07T17:15:46.749Z,98794.59
2022-09-07T17:17:49.421Z,98788.81
2022-09-07T17:19:53.134Z,98785.72
2022-09-07T17:21:57.696Z,98785.88
2022-09-07T17:24:03.819Z,98791.56
2022-09-07T17:26:09.932Z,98797.03
2022-09-07T17:28:15.226Z,98787.66
2022-09-07T17:30:20.753Z,98800.91
2022-09-07T17:32:26.322Z,98778.56
2022-09-07T17:34:30.565Z,98787.06
2022-09-07T17:36:34.574Z,98802.53
2022-09-07T17:41:15.031Z,98804.44
2022-09-07T17:45:40.923Z,98788.63
2022-09-07T17:47:43.595Z,98777.22
2022-09-07T17:49:46.431Z,98801.69
2022-09-07T17:51:49.138Z,98794.31
2022-09-07T17:53:58.767Z,98787.66
2022-09-07T17:56:01.744Z,98781.72
2022-09-07T17:58:05.434Z,98783.97
2022-09-07T18:00:11.400Z,98756.34
2022-09-07T18:02:14.739Z,98773.50
2022-09-07T18:04:17.501Z,98778.50
2022-09-07T18:06:20.986Z,98770.94
2022-09-07T18:08:23.965Z,98783.50
2022-09-07T18:10:26.661Z,98780.75
2022-09-07T18:12:29.749Z,98778.38
2022-09-07T18:14:33.786Z,98777.22
2022-09-07T18:16:36.585Z,98783.19
2022-09-07T18:18:39.907Z,98779.31
2022-09-07T18:20:45.031Z,98783.97
2022-09-07T18:22:47.729Z,98772.88
2022-09-07T18:24:51.988Z,98773.00
2022-09-07T18:26:54.787Z,98781.44
2022-09-07T18:29:08.409Z,98778.88
2022-09-07T18:31:16.188Z,98782.09
2022-09-07T18:33:18.924Z,98780.16
2022-09-07T18:35:21.590Z,98775.34
2022-09-07T18:37:24.266Z,98781.31
2022-09-07T18:39:27.875Z,98779.69
2022-09-07T18:41:30.581Z,98785.16
2022-09-07T18:43:35.461Z,98777.41
2022-09-07T18:45:38.091Z,98781.94
2022-09-07T18:47:41.000Z,98789.19
2022-09-07T18:49:43.673Z,98796.59
2022-09-07T18:54:09.086Z,98787.59
2022-09-07T18:56:19.529Z,98791.59
2022-09-07T18:58:22.163Z,98787.38
2022-09-07T19:00:24.839Z,98788.25
2022-09-07T19:02:27.505Z,98788.56
2022-09-07T19:06:53.867Z,98781.94
2022-09-07T19:08:56.871Z,98785.66
2022-09-07T19:11:09.968Z,98788.75
2022-09-07T19:13:12.666Z,98787.00
2022-09-07T19:15:15.442Z,98795.34
2022-09-07T19:17:18.138Z,98792.63
2022-09-07T19:19:22.029Z,98786.50
2022-09-07T19:21:27.414Z,98798.25
2022-09-07T19:23:30.223Z,98786.66
2022-09-07T19:25:33.170Z,98787.63
2022-09-07T19:27:35.836Z,98783.75
2022-09-07T19:29:38.385Z,98782.94
2022-09-07T19:31:42.782Z,98780.19
2022-09-07T19:33:45.621Z,98781.00
2022-09-07T19:35:48.516Z,98792.78
2022-09-07T19:37:51.154Z,98785.06
2022-09-07T19:39:56.955Z,98783.91
2022-09-07T19:42:00.395Z,98794.09
2022-09-07T19:44:03.164Z,98789.41
2022-09-07T19:46:05.914Z,98787.00
2022-09-07T19:48:08.606Z,98792.13
2022-09-07T19:50:11.359Z,98792.13
2022-09-07T19:52:14.075Z,98788.13
2022-09-07T19:54:16.745Z,98792.13
2022-09-07T19:56:24.242Z,98783.13
2022-09-07T19:58:26.818Z,98777.63
2022-09-07T20:00:29.592Z,98782.00
2022-09-07T20:02:32.281Z,98788.09
2022-09-07T20:04:35.980Z,98784.22
2022-09-07T20:06:39.726Z,98775.84
2022-09-07T20:08:43.503Z,98784.56
2022-09-07T20:10:46.071Z,98772.50
2022-09-07T20:12:48.757Z,98786.81
2022-09-07T20:14:51.777Z,98786.50
2022-09-07T20:16:54.909Z,98794.72
2022-09-07T20:18:58.841Z,98790.03
2022-09-07T20:21:06.770Z,98791.44
2022-09-07T20:23:09.433Z,98790.16
2022-09-07T20:25:13.365Z,98789.53
2022-09-07T20:27:16.923Z,98792.25
2022-09-07T20:29:28.684Z,98782.91
2022-09-07T20:31:32.071Z,98782.09
2022-09-07T20:33:35.799Z,98789.53
2022-09-07T20:35:38.709Z,98781.47
2022-09-07T20:37:41.415Z,98781.94
2022-09-07T20:39:44.069Z,98782.00
2022-09-07T20:41:47.327Z,98777.00
2022-09-07T20:43:51.041Z,98785.66
2022-09-07T20:45:58.452Z,98787.28
2022-09-07T20:48:01.067Z,98777.94
2022-09-07T20:50:03.783Z,98781.16
2022-09-07T20:52:06.383Z,98781.63
2022-09-07T20:54:09.036Z,98783.41
2022-09-07T20:56:15.743Z,98784.38
2022-09-07T20:58:18.474Z,98781.63
2022-09-07T21:00:21.150Z,98772.25
2022-09-07T21:02:23.960Z,98778.41
2022-09-07T21:04:27.636Z,98777.13
2022-09-07T21:06:31.420Z,98778.72
2022-09-07T21:08:39.231Z,98741.44
2022-09-07T21:10:43.542Z,98775.38
2022-09-07T21:12:46.298Z,98771.53
2022-09-07T21:14:49.046Z,98775.84
2022-09-07T21:16:51.623Z,98769.09
2022-09-07T21:18:57.016Z,98753.78
2022-09-07T21:21:20.129Z,98766.38
2022-09-07T21:23:24.485Z,98770.09
2022-09-07T21:25:27.279Z,98755.13
2022-09-07T21:27:38.133Z,98758.53
2022-09-07T21:29:41.089Z,98752.56
2022-09-07T21:31:43.858Z,98754.63
2022-09-07T21:33:46.599Z,98762.56
2022-09-07T21:35:49.196Z,98762.06
2022-09-07T21:37:52.859Z,98756.91
2022-09-07T21:39:55.562Z,98758.03
2022-09-07T21:41:58.129Z,98757.56
2022-09-07T21:44:02.550Z,98756.28
2022-09-07T21:46:16.758Z,98751.44
2022-09-07T21:48:19.495Z,98754.84
2022-09-07T21:50:22.131Z,98761.78
2022-09-07T21:52:24.780Z,98754.25
2022-09-07T21:54:27.351Z,98749.25
2022-09-07T21:56:31.417Z,98748.28
2022-09-07T21:58:34.407Z,98755.84
2022-09-07T22:00:38.984Z,98747.94
2022-09-07T22:02:41.715Z,98752.44
2022-09-07T22:04:44.298Z,98747.78
2022-09-07T22:06:46.915Z,98752.91
2022-09-07T22:08:50.113Z,98755.16
2022-09-07T22:10:52.653Z,98750.69
2022-09-07T22:12:55.612Z,98761.13
2022-09-07T22:14:58.399Z,98752.78
2022-09-07T22:17:01.018Z,98748.28
2022-09-07T22:19:04.509Z,98750.66
2022-09-07T22:21:15.969Z,98754.06
2022-09-07T22:23:18.545Z,98758.38
2022-09-07T22:25:21.107Z,98752.78
2022-09-07T22:27:23.829Z,98763.75
2022-09-07T22:29:26.507Z,98754.25
2022-09-07T22:31:31.967Z,98757.91
2022-09-07T22:33:34.740Z,98756.78
2022-09-07T22:35:37.446Z,98757.75
2022-09-07T22:37:40.082Z,98753.75
2022-09-07T22:39:42.753Z,98755.34
2022-09-07T22:41:47.281Z,98755.34
2022-09-07T22:43:53.129Z,98767.56
2022-09-07T22:45:55.702Z,98767.88
2022-09-07T22:47:58.253Z,98764.06
2022-09-07T22:50:00.872Z,98771.59
2022-09-07T22:52:03.484Z,98765.34
2022-09-07T22:54:06.177Z,98767.59
2022-09-07T22:56:12.106Z,98761.63
2022-09-07T22:58:14.743Z,98743.03
2022-09-07T23:00:17.569Z,98758.75
2022-09-07T23:02:20.247Z,98750.25
2022-09-07T23:04:23.073Z,98765.53
2022-09-07T23:06:25.748Z,98762.31
2022-09-07T23:08:28.911Z,98765.53
2022-09-07T23:10:35.369Z,98756.03
2022-09-07T23:12:38.022Z,98754.59
2022-09-07T23:14:40.754Z,98761.22
2022-09-07T23:16:44.125Z,98756.03
2022-09-07T23:18:46.992Z,98762.19
2022-09-07T23:20:49.573Z,98761.38
2022-09-07T23:22:53.210Z,98760.91
2022-09-07T23:24:55.872Z,98763.97
2022-09-07T23:26:58.498Z,98766.41
2022-09-07T23:29:04.747Z,98768.81
2022-09-07T23:31:10.994Z,98762.38
2022-09-07T23:33:13.888Z,98763.81
2022-09-07T23:35:16.814Z,98764.63
2022-09-07T23:37:19.544Z,98766.09
2022-09-07T23:39:22.179Z,98770.25
2022-09-07T23:41:25.561Z,98764.75
2022-09-07T23:43:30.207Z,98778.13
2022-09-07T23:45:32.959Z,98775.06
2022-09-07T23:47:35.577Z,98776.00
2022-09-07T23:49:38.548Z,98771.00
2022-09-07T23:51:41.084Z,98768.28
2022-09-07T23:53:43.701Z,98773.44
2022-09-07T23:55:50.437Z,98769.25
2022-09-07T23:57:53.075Z,98771.31
2022-09-07T23:59:55.648Z,98772.47
